Time;durP1;ratioP1;P1;durP2;ratioP2;P2;SDS_P1;SDS_P2;PMS_P1;PMS_P2;Temp;Humidity;BMP_temperature;BMP_pressure;BME280_temperature;BME280_humidity;BME280_pressure;Samples;Min_cycle;Max_cycle;Signal;HPM_P1;HPM_P2
2023/07/30 00:00:37;;;;;;;2.75;0.80;;;22.30;58.40;;;;;;5053822;28;20021;-76
2023/07/30 00:03:03;;;;;;;0.88;0.60;;;22.40;58.50;;;;;;5053490;28;20403;-80
2023/07/30 00:05:28;;;;;;;2.20;0.80;;;22.30;58.40;;;;;;5053532;28;20029;-80
2023/07/30 00:07:54;;;;;;;1.42;0.60;;;22.30;58.50;;;;;;5053463;28;20029;-80
2023/07/30 00:10:20;;;;;;;1.88;0.70;;;22.30;58.40;;;;;;5053423;28;20045;-80
2023/07/30 00:12:46;;;;;;;1.65;0.52;;;22.30;58.50;;;;;;5053380;28;20036;-80
2023/07/30 00:15:12;;;;;;;1.75;0.80;;;22.30;58.50;;;;;;5053016;28;20041;-80
2023/07/30 00:17:39;;;;;;;2.40;1.00;;;22.30;59.10;;;;;;5053203;28;20029;-80
2023/07/30 00:20:06;;;;;;;3.22;1.05;;;22.30;59.10;;;;;;5053740;28;20053;-80
2023/07/30 00:22:32;;;;;;;1.98;0.80;;;22.30;58.50;;;;;;5053207;28;20021;-80
2023/07/30 00:24:58;;;;;;;1.42;0.70;;;22.30;58.50;;;;;;5053151;28;20503;-80
2023/07/30 00:27:23;;;;;;;2.03;0.80;;;22.20;58.40;;;;;;5052952;28;20057;-81
2023/07/30 00:29:49;;;;;;;2.58;0.80;;;22.20;58.50;;;;;;5053113;28;20108;-80
2023/07/30 00:32:16;;;;;;;0.90;0.50;;;22.20;58.50;;;;;;5052953;28;20118;-80
2023/07/30 00:34:42;;;;;;;1.27;0.57;;;22.20;58.50;;;;;;5052974;28;20517;-80
2023/07/30 00:37:08;;;;;;;2.00;0.93;;;22.20;58.50;;;;;;5052827;28;20037;-80
2023/07/30 00:39:34;;;;;;;1.38;0.68;;;22.20;58.50;;;;;;5052767;28;20027;-80
2023/07/30 00:41:59;;;;;;;2.47;0.95;;;22.20;58.50;;;;;;5052761;28;20476;-80
2023/07/30 00:44:25;;;;;;;0.82;0.70;;;22.20;58.40;;;;;;5052476;28;20025;-80
2023/07/30 00:46:51;;;;;;;2.35;0.68;;;22.20;58.50;;;;;;5052672;28;20447;-80
2023/07/30 00:49:16;;;;;;;1.23;0.65;;;22.20;58.50;;;;;;5053145;28;20017;-80
2023/07/30 00:51:43;;;;;;;1.88;0.95;;;22.10;59.10;;;;;;5051374;28;20031;-80
2023/07/30 00:54:10;;;;;;;1.38;0.60;;;22.10;58.40;;;;;;5051251;28;20065;-80
2023/07/30 00:56:36;;;;;;;2.47;0.88;;;22.10;58.40;;;;;;5052412;28;20032;-80
2023/07/30 00:59:02;;;;;;;1.17;0.80;;;22.10;58.50;;;;;;5052388;28;20108;-80
2023/07/30 01:01:29;;;;;;;2.05;0.93;;;21.90;78.40;;;;;;5052524;28;20052;-80
2023/07/30 01:03:55;;;;;;;1.58;0.80;;;22.10;59.10;;;;;;5052384;28;20383;-80
2023/07/30 01:06:21;;;;;;;1.45;0.60;;;22.10;58.50;;;;;;5052366;28;20021;-80
2023/07/30 01:08:48;;;;;;;1.98;0.80;;;22.10;58.50;;;;;;5052307;28;20040;-80
2023/07/30 01:11:14;;;;;;;2.40;0.93;;;22.10;58.50;;;;;;5052278;28;20067;-80
2023/07/30 01:13:41;;;;;;;2.00;0.77;;;;;;;;;;5051941;28;21396;-80
2023/07/30 01:16:07;;;;;;;2.70;0.80;;;22.00;57.90;;;;;;5052104;28;20563;-80
2023/07/30 01:18:32;;;;;;;1.50;0.90;;;22.00;58.50;;;;;;5052512;28;20384;-80
2023/07/30 01:20:59;;;;;;;1.75;0.85;;;22.00;58.50;;;;;;5051997;28;20059;-80
2023/07/30 01:23:25;;;;;;;2.45;1.08;;;22.00;58.50;;;;;;5052105;28;20499;-80
2023/07/30 01:26:10;;;;;;;3.28;1.20;;;22.00;58.50;;;;;;5051995;28;20064;-80
2023/07/30 01:28:44;;;;;;;2.78;1.00;;;22.00;58.30;;;;;;5051934;28;20496;-80
2023/07/30 01:31:15;;;;;;;2.40;1.00;;;22.00;58.00;;;;;;5052141;28;20104;-80
2023/07/30 01:33:41;;;;;;;2.63;0.90;;;22.00;58.50;;;;;;5051879;28;20472;-80
2023/07/30 01:36:10;;;;;;;1.92;1.00;;;22.00;58.60;;;;;;5051972;28;20033;-80
2023/07/30 01:38:38;;;;;;;4.25;1.27;;;22.00;58.60;;;;;;5051782;28;20035;-80
2023/07/30 01:41:04;;;;;;;3.55;1.15;;;21.90;58.60;;;;;;5051770;28;20091;-80
2023/07/30 01:43:30;;;;;;;2.67;1.00;;;22.00;58.60;;;;;;5051751;28;20467;-80
2023/07/30 01:45:55;;;;;;;1.00;0.63;;;21.90;58.60;;;;;;5052379;28;20021;-80
2023/07/30 01:48:21;;;;;;;2.55;0.98;;;22.00;58.70;;;;;;5051755;28;20029;-80
2023/07/30 01:50:49;;;;;;;3.72;1.23;;;21.90;58.60;;;;;;5051636;28;20032;-80
2023/07/30 01:53:15;;;;;;;3.88;1.00;;;21.90;58.60;;;;;;5051697;28;20021;-80
2023/07/30 01:55:43;;;;;;;2.53;0.95;;;21.90;58.70;;;;;;5051663;28;20024;-80
2023/07/30 01:58:09;;;;;;;2.65;1.20;;;21.90;58.60;;;;;;5055816;28;20040;-80
2023/07/30 02:00:35;;;;;;;1.42;0.80;;;21.90;58.70;;;;;;5056077;28;20071;-76
2023/07/30 02:03:02;;;;;;;1.88;0.98;;;21.90;58.60;;;;;;5055619;28;20018;-76
2023/07/30 02:05:28;;;;;;;2.10;1.00;;;21.90;58.70;;;;;;5055754;28;20051;-76
2023/07/30 02:07:54;;;;;;;1.88;0.88;;;21.90;58.60;;;;;;5055982;28;20036;-76
2023/07/30 02:10:20;;;;;;;2.80;1.00;;;21.90;58.70;;;;;;5055674;28;20024;-76
2023/07/30 02:12:45;;;;;;;2.15;0.80;;;21.90;58.70;;;;;;5055596;28;20037;-76
2023/07/30 02:15:11;;;;;;;1.90;0.77;;;21.90;58.70;;;;;;5054665;28;20106;-80
2023/07/30 02:17:36;;;;;;;2.92;1.20;;;21.90;58.80;;;;;;5055421;28;20530;-80
2023/07/30 02:20:02;;;;;;;2.08;1.13;;;21.90;58.90;;;;;;5055509;28;20494;-80
2023/07/30 02:22:28;;;;;;;1.92;0.80;;;21.80;58.70;;;;;;5055508;28;20025;-80
2023/07/30 02:24:56;;;;;;;1.83;0.80;;;21.80;58.80;;;;;;5055325;28;20492;-80
2023/07/30 02:27:22;;;;;;;3.88;1.00;;;21.90;58.80;;;;;;5055294;28;20028;-80
2023/07/30 02:29:48;;;;;;;2.53;0.75;;;21.80;58.80;;;;;;5055155;28;20476;-80
2023/07/30 02:32:14;;;;;;;3.35;1.00;;;21.80;58.70;;;;;;5055140;28;20029;-80
2023/07/30 02:34:39;;;;;;;3.08;1.30;;;21.80;58.90;;;;;;5053719;28;20361;-81
2023/07/30 02:37:05;;;;;;;2.33;1.02;;;21.80;58.90;;;;;;5054975;28;20033;-80
2023/07/30 02:39:30;;;;;;;3.50;0.95;;;21.80;58.80;;;;;;5055094;28;20487;-80
2023/07/30 02:41:56;;;;;;;3.55;1.08;;;21.80;58.80;;;;;;5053710;28;20033;-80
2023/07/30 02:44:22;;;;;;;3.00;0.88;;;21.80;58.90;;;;;;5055495;28;20025;-80
2023/07/30 02:46:47;;;;;;;2.67;1.13;;;21.80;59.00;;;;;;5054946;28;20527;-80
2023/07/30 02:49:13;;;;;;;2.95;1.10;;;21.80;58.90;;;;;;5054933;28;20029;-80
2023/07/30 02:51:38;;;;;;;2.05;0.80;;;21.80;58.90;;;;;;5054918;28;20423;-80
2023/07/30 02:54:05;;;;;;;2.25;1.02;;;21.80;58.90;;;;;;5054780;28;20021;-80
2023/07/30 02:56:31;;;;;;;2.83;0.95;;;21.80;59.00;;;;;;5054820;28;20060;-80
2023/07/30 02:58:58;;;;;;;2.95;0.98;;;21.70;58.90;;;;;;5054678;28;20061;-80
2023/07/30 03:01:24;;;;;;;2.78;0.90;;;22.00;79.10;;;;;;5054583;28;20040;-80
2023/07/30 03:03:50;;;;;;;3.90;1.30;;;21.70;59.00;;;;;;5054863;28;20082;-80
2023/07/30 03:06:16;;;;;;;3.17;1.10;;;21.70;59.00;;;;;;5054498;28;20052;-80
2023/07/30 03:08:43;;;;;;;1.98;0.60;;;21.70;59.00;;;;;;5054775;28;20525;-80
2023/07/30 03:11:09;;;;;;;3.20;1.30;;;21.70;59.00;;;;;;5054960;28;20032;-80
2023/07/30 03:13:35;;;;;;;3.17;1.23;;;21.70;59.00;;;;;;5054511;28;20094;-80
2023/07/30 03:16:01;;;;;;;2.45;1.15;;;21.70;59.10;;;;;;5054662;28;20029;-80
2023/07/30 03:18:27;;;;;;;3.67;1.20;;;21.70;59.00;;;;;;5054555;28;20040;-80
2023/07/30 03:21:01;;;;;;;3.28;1.17;;;21.70;59.10;;;;;;5054176;28;20028;-80
2023/07/30 03:23:27;;;;;;;4.18;1.20;;;21.70;59.10;;;;;;5054331;28;20040;-76
2023/07/30 03:25:54;;;;;;;2.40;1.15;;;21.70;59.10;;;;;;5054342;28;20017;-76
2023/07/30 03:28:20;;;;;;;3.03;0.85;;;21.70;59.20;;;;;;5054497;28;20028;-76
2023/07/30 03:30:46;;;;;;;2.38;1.10;;;21.70;59.20;;;;;;5054425;28;20474;-76
2023/07/30 03:33:12;;;;;;;4.75;1.20;;;21.70;59.80;;;;;;5054385;28;20126;-76
2023/07/30 03:35:38;;;;;;;4.55;1.13;;;21.70;59.20;;;;;;5054389;28;20035;-76
2023/07/30 03:38:04;;;;;;;4.18;1.00;;;21.70;59.20;;;;;;5054112;28;20159;-76
2023/07/30 03:40:30;;;;;;;3.53;1.33;;;21.70;59.20;;;;;;5054476;28;20032;-76
2023/07/30 03:42:56;;;;;;;3.92;1.33;;;21.70;59.20;;;;;;5053829;28;20425;-76
2023/07/30 03:45:22;;;;;;;2.90;0.90;;;21.70;59.30;;;;;;5054043;28;20104;-76
2023/07/30 03:47:48;;;;;;;1.65;0.73;;;21.60;59.20;;;;;;5053968;28;20032;-76
2023/07/30 03:50:15;;;;;;;4.20;1.25;;;21.60;59.30;;;;;;5053941;28;20025;-76
2023/07/30 03:52:41;;;;;;;2.63;1.10;;;21.60;59.20;;;;;;5053695;28;20475;-76
2023/07/30 03:55:07;;;;;;;3.00;1.27;;;21.60;59.30;;;;;;5053457;28;20025;-76
2023/07/30 03:57:33;;;;;;;6.13;1.48;;;21.60;59.30;;;;;;5053344;28;20027;-76
2023/07/30 04:00:00;;;;;;;4.50;1.42;;;21.60;59.30;;;;;;5053835;28;20021;-76
2023/07/30 04:02:26;;;;;;;4.47;1.20;;;21.60;59.30;;;;;;5053855;28;20052;-76
2023/07/30 04:04:53;;;;;;;3.40;1.17;;;21.60;59.30;;;;;;5053326;28;20032;-76
2023/07/30 04:07:19;;;;;;;2.95;1.23;;;21.60;59.30;;;;;;5053509;28;20538;-76
2023/07/30 04:09:45;;;;;;;4.10;1.58;;;21.60;59.40;;;;;;5053710;28;20552;-76
2023/07/30 04:12:10;;;;;;;3.15;1.30;;;21.60;59.90;;;;;;5053181;28;20108;-76
2023/07/30 04:14:36;;;;;;;3.42;1.10;;;21.60;59.30;;;;;;5053120;28;20071;-76
2023/07/30 04:17:02;;;;;;;4.72;1.02;;;21.60;59.40;;;;;;5053187;28;20499;-76
2023/07/30 04:19:27;;;;;;;3.00;1.02;;;21.50;59.30;;;;;;5052662;28;20028;-76
2023/07/30 04:21:53;;;;;;;3.00;1.13;;;21.60;59.40;;;;;;5053210;28;20098;-76
2023/07/30 04:24:19;;;;;;;3.92;1.10;;;21.60;59.30;;;;;;5053048;28;20018;-76
2023/07/30 04:26:44;;;;;;;4.35;1.45;;;21.60;59.40;;;;;;5053054;28;20025;-75
2023/07/30 04:29:10;;;;;;;4.00;1.10;;;21.60;59.40;;;;;;5052912;28;20464;-76
2023/07/30 04:31:36;;;;;;;5.97;1.40;;;21.50;59.40;;;;;;5053045;28;20021;-76
2023/07/30 04:34:01;;;;;;;4.40;1.08;;;21.20;59.30;;;;;;5052882;28;20032;-77
2023/07/30 04:36:27;;;;;;;3.13;1.13;;;21.60;59.40;;;;;;5052837;28;20475;-76
2023/07/30 04:38:54;;;;;;;5.03;1.35;;;21.50;59.40;;;;;;5053394;28;20059;-80
2023/07/30 04:41:20;;;;;;;2.83;0.98;;;21.50;59.50;;;;;;5052995;28;20517;-80
2023/07/30 04:43:47;;;;;;;4.30;1.65;;;21.50;59.50;;;;;;5052976;28;20101;-80
2023/07/30 04:46:13;;;;;;;4.55;1.60;;;21.50;59.50;;;;;;5052844;28;20032;-80
2023/07/30 04:48:40;;;;;;;3.88;1.30;;;21.50;59.50;;;;;;5052627;28;20025;-80
2023/07/30 04:51:06;;;;;;;6.72;1.95;;;21.50;59.40;;;;;;5052925;28;20025;-76
2023/07/30 04:53:32;;;;;;;3.72;1.50;;;21.50;59.50;;;;;;5052570;28;20028;-76
2023/07/30 04:55:58;;;;;;;5.32;1.20;;;21.50;59.50;;;;;;5052464;28;20486;-76
2023/07/30 04:58:24;;;;;;;3.38;1.25;;;21.50;59.40;;;;;;5052292;28;20041;-76
2023/07/30 05:00:50;;;;;;;4.18;1.30;;;21.50;59.50;;;;;;5052411;28;20028;-76
2023/07/30 05:03:15;;;;;;;5.95;1.50;;;21.50;59.50;;;;;;5052359;28;20056;-76
2023/07/30 05:05:41;;;;;;;4.13;1.27;;;21.50;59.70;;;;;;5052725;28;20031;-76
2023/07/30 05:08:07;;;;;;;4.97;1.38;;;21.50;59.60;;;;;;5052234;28;20028;-76
2023/07/30 05:10:33;;;;;;;5.57;1.55;;;21.50;59.60;;;;;;5052144;28;20037;-76
2023/07/30 05:12:59;;;;;;;4.20;1.50;;;21.50;59.70;;;;;;5052207;28;20108;-76
2023/07/30 05:15:24;;;;;;;5.18;1.77;;;21.50;59.70;;;;;;5051872;28;20041;-76
2023/07/30 05:17:50;;;;;;;4.75;1.65;;;21.50;60.30;;;;;;5052050;28;20029;-76
2023/07/30 05:20:16;;;;;;;3.28;1.30;;;21.50;60.30;;;;;;5052094;28;20476;-76
2023/07/30 05:22:41;;;;;;;4.10;1.45;;;21.60;59.70;;;;;;5052613;28;20036;-76
2023/07/30 05:25:07;;;;;;;3.55;1.13;;;21.50;60.30;;;;;;5052058;28;20029;-76
2023/07/30 05:27:33;;;;;;;4.97;1.30;;;21.50;59.70;;;;;;5052063;28;20155;-76
2023/07/30 05:29:59;;;;;;;4.00;1.75;;;21.50;59.60;;;;;;5051921;28;20032;-76
2023/07/30 05:32:26;;;;;;;2.63;1.30;;;21.50;59.60;;;;;;5049863;28;20029;-76
2023/07/30 05:34:51;;;;;;;4.80;1.17;;;21.50;59.60;;;;;;5052511;28;20349;-76
2023/07/30 05:37:17;;;;;;;3.78;1.50;;;21.50;59.60;;;;;;5051816;28;20044;-76
2023/07/30 05:39:42;;;;;;;3.47;1.17;;;21.50;59.60;;;;;;5051839;28;20025;-75
2023/07/30 05:42:08;;;;;;;3.45;1.27;;;21.40;59.60;;;;;;5051857;28;20052;-76
2023/07/30 05:44:34;;;;;;;5.60;1.67;;;21.50;59.50;;;;;;5051827;28;20068;-76
2023/07/30 05:47:00;;;;;;;7.63;1.30;;;21.50;59.60;;;;;;5051839;28;20098;-76
2023/07/30 05:49:25;;;;;;;5.43;1.58;;;21.40;59.50;;;;;;5051696;28;20025;-76
2023/07/30 05:51:51;;;;;;;3.92;1.70;;;21.50;59.60;;;;;;5050499;28;20545;-76
2023/07/30 05:54:17;;;;;;;6.03;1.27;;;21.50;59.70;;;;;;5052023;28;20032;-76
2023/07/30 05:56:43;;;;;;;8.43;1.58;;;21.40;59.60;;;;;;5051641;28;20017;-76
2023/07/30 05:59:09;;;;;;;5.15;1.33;;;21.50;59.70;;;;;;5051551;28;20395;-76
2023/07/30 06:01:34;;;;;;;5.53;1.73;;;21.50;59.70;;;;;;5051508;28;20025;-76
2023/07/30 06:04:00;;;;;;;5.93;1.27;;;21.40;59.60;;;;;;5052034;28;20057;-76
2023/07/30 06:06:29;;;;;;;3.13;1.20;;;21.50;59.70;;;;;;5051611;28;20029;-76
2023/07/30 06:08:55;;;;;;;4.90;1.20;;;21.50;59.70;;;;;;5051760;28;20025;-76
2023/07/30 06:11:21;;;;;;;6.18;1.92;;;21.40;59.70;;;;;;5051797;28;20025;-76
2023/07/30 06:13:47;;;;;;;5.95;1.40;;;21.50;59.80;;;;;;5051518;28;20119;-76
2023/07/30 06:16:14;;;;;;;3.65;1.52;;;21.50;59.80;;;;;;5051481;28;20021;-76
2023/07/30 06:18:41;;;;;;;4.78;1.50;;;21.40;59.80;;;;;;5051637;28;20033;-76
2023/07/30 06:21:07;;;;;;;4.43;1.20;;;21.40;59.70;;;;;;5051376;28;20490;-76
2023/07/30 06:23:33;;;;;;;4.38;1.15;;;21.40;59.80;;;;;;5051626;28;20025;-76
2023/07/30 06:25:59;;;;;;;3.83;1.27;;;21.40;59.90;;;;;;5051415;28;20107;-76
2023/07/30 06:28:25;;;;;;;5.00;1.40;;;21.50;59.80;;;;;;5051610;28;20108;-76
2023/07/30 06:30:51;;;;;;;6.78;1.70;;;21.50;59.90;;;;;;5051648;28;20025;-76
2023/07/30 06:33:17;;;;;;;3.55;1.15;;;21.50;59.90;;;;;;5051355;28;20112;-76
2023/07/30 06:35:43;;;;;;;5.40;1.40;;;21.40;59.80;;;;;;5051262;28;20052;-76
2023/07/30 06:38:09;;;;;;;6.28;1.75;;;21.40;59.90;;;;;;5051234;28;20061;-77
2023/07/30 06:40:34;;;;;;;4.40;1.10;;;21.40;59.90;;;;;;5051225;28;20033;-76
2023/07/30 06:43:00;;;;;;;5.75;1.48;;;21.40;59.90;;;;;;5052865;28;20387;-76
2023/07/30 06:45:26;;;;;;;4.28;1.58;;;21.40;59.90;;;;;;5055024;28;20495;-76
2023/07/30 06:47:51;;;;;;;7.13;1.70;;;21.40;80.20;;;;;;5054894;28;20499;-76
2023/07/30 06:50:17;;;;;;;3.67;1.52;;;21.40;60.00;;;;;;5055365;28;20036;-76
2023/07/30 06:52:43;;;;;;;5.78;1.65;;;21.40;60.00;;;;;;5054837;28;20025;-76
2023/07/30 06:55:08;;;;;;;4.93;1.50;;;21.40;60.00;;;;;;5054757;28;20490;-76
2023/07/30 06:57:34;;;;;;;5.38;1.60;;;21.40;60.10;;;;;;5054663;28;20130;-76
2023/07/30 07:00:00;;;;;;;5.22;1.40;;;21.40;60.10;;;;;;5054699;28;20021;-76
2023/07/30 07:02:26;;;;;;;3.95;1.38;;;21.40;60.10;;;;;;5054657;28;20025;-80
2023/07/30 07:04:51;;;;;;;6.00;1.40;;;21.40;60.20;;;;;;5054501;28;20021;-80
2023/07/30 07:07:17;;;;;;;4.78;1.58;;;21.40;60.20;;;;;;5054546;28;20472;-80
2023/07/30 07:09:43;;;;;;;4.97;1.52;;;21.40;60.80;;;;;;5054447;28;20067;-80
2023/07/30 07:12:08;;;;;;;5.68;1.52;;;21.40;60.20;;;;;;5054501;28;20079;-80
2023/07/30 07:14:34;;;;;;;4.85;1.40;;;21.40;60.20;;;;;;5054214;28;20040;-80
2023/07/30 07:16:59;;;;;;;5.85;1.42;;;21.40;60.30;;;;;;5054244;28;20102;-80
2023/07/30 07:19:25;;;;;;;4.75;1.38;;;21.40;60.30;;;;;;5054902;28;20079;-81
2023/07/30 07:21:51;;;;;;;6.57;1.50;;;21.40;60.30;;;;;;5054334;28;20031;-80
2023/07/30 07:24:16;;;;;;;5.93;1.88;;;21.40;60.20;;;;;;5054289;28;20574;-80
2023/07/30 07:26:42;;;;;;;4.43;1.50;;;21.40;60.20;;;;;;5054305;28;20023;-80
2023/07/30 07:29:09;;;;;;;4.53;1.50;;;21.50;60.30;;;;;;5054156;28;20025;-80
2023/07/30 07:31:34;;;;;;;4.80;1.52;;;21.50;60.20;;;;;;5054132;28;20500;-80
2023/07/30 07:34:00;;;;;;;4.72;1.50;;;21.50;60.10;;;;;;5054026;28;20033;-80
2023/07/30 07:36:26;;;;;;;6.78;1.67;;;21.60;60.00;;;;;;5054095;28;20040;-80
2023/07/30 07:38:51;;;;;;;6.00;1.38;;;21.70;59.80;;;;;;5053925;28;20037;-80
2023/07/30 07:41:17;;;;;;;5.60;1.52;;;21.70;59.60;;;;;;5053968;28;20485;-80
2023/07/30 07:43:44;;;;;;;5.80;1.50;;;21.70;59.80;;;;;;5054048;28;20025;-80
2023/07/30 07:46:13;;;;;;;6.15;1.70;;;21.50;80.30;;;;;;5054338;28;20104;-80
2023/07/30 07:48:43;;;;;;;6.38;1.48;;;21.60;60.20;;;;;;5053904;28;20423;-80
2023/07/30 07:51:10;;;;;;;5.50;1.58;;;21.60;60.20;;;;;;5053840;28;20047;-80
2023/07/30 07:53:37;;;;;;;5.43;1.42;;;21.50;60.20;;;;;;5053578;28;20029;-81
2023/07/30 07:56:03;;;;;;;6.20;1.70;;;21.50;60.30;;;;;;5053569;28;20363;-80
2023/07/30 07:58:30;;;;;;;7.93;1.70;;;21.50;60.30;;;;;;5053583;28;20543;-80
2023/07/30 08:00:56;;;;;;;4.28;1.38;;;21.60;60.40;;;;;;5053866;28;20025;-80
2023/07/30 08:03:23;;;;;;;6.70;2.10;;;21.50;60.50;;;;;;5053690;28;20074;-80
2023/07/30 08:05:50;;;;;;;6.35;1.77;;;21.50;60.50;;;;;;5053492;28;20112;-80
2023/07/30 08:08:16;;;;;;;3.67;1.30;;;21.50;60.50;;;;;;5053635;28;20087;-80
2023/07/30 08:10:43;;;;;;;5.55;1.77;;;21.50;60.60;;;;;;5053669;28;20419;-80
2023/07/30 08:13:10;;;;;;;5.00;1.20;;;21.60;61.40;;;;;;5053614;28;20082;-80
2023/07/30 08:15:36;;;;;;;4.82;1.38;;;21.60;60.70;;;;;;5053649;28;20048;-80
2023/07/30 08:18:02;;;;;;;7.57;1.52;;;21.50;61.40;;;;;;5053119;28;20036;-80
2023/07/30 08:20:28;;;;;;;6.10;1.95;;;21.60;60.70;;;;;;5053490;28;20096;-80
2023/07/30 08:22:55;;;;;;;5.00;1.73;;;21.60;60.70;;;;;;5053103;28;20490;-80
2023/07/30 08:25:21;;;;;;;4.82;1.63;;;21.60;60.70;;;;;;5053501;28;20115;-80
2023/07/30 08:27:47;;;;;;;5.10;1.38;;;21.60;60.70;;;;;;5053176;28;20021;-80
2023/07/30 08:30:13;;;;;;;3.95;1.75;;;21.60;60.80;;;;;;5052960;28;20078;-80
2023/07/30 08:32:41;;;;;;;4.60;1.27;;;21.60;60.80;;;;;;5053025;28;20507;-80
2023/07/30 08:35:07;;;;;;;5.18;1.45;;;21.60;60.80;;;;;;5052921;28;20028;-80
2023/07/30 08:37:33;;;;;;;6.25;1.80;;;21.60;60.90;;;;;;5051609;28;20048;-80
2023/07/30 08:39:58;;;;;;;6.88;1.60;;;21.60;60.80;;;;;;5052892;28;20128;-80
2023/07/30 08:42:24;;;;;;;8.30;1.65;;;21.60;60.90;;;;;;5052779;28;20439;-81
2023/07/30 08:44:50;;;;;;;4.88;1.73;;;21.60;60.90;;;;;;5053314;28;20029;-80
2023/07/30 08:47:15;;;;;;;6.80;1.27;;;21.60;60.90;;;;;;5052717;28;20032;-80
2023/07/30 08:49:41;;;;;;;6.78;1.77;;;21.60;60.30;;;;;;5052869;28;20017;-80
2023/07/30 08:52:09;;;;;;;7.18;1.88;;;21.60;60.90;;;;;;5052494;28;20021;-80
2023/07/30 08:54:37;;;;;;;4.05;1.08;;;21.60;60.90;;;;;;5052568;28;20525;-80
2023/07/30 08:57:04;;;;;;;3.55;1.27;;;21.70;61.00;;;;;;5052407;28;20534;-80
2023/07/30 08:59:52;;;;;;;7.28;1.55;;;21.70;60.90;;;;;;5052496;28;20025;-80
2023/07/30 09:02:30;;;;;;;6.05;1.60;;;21.70;60.80;;;;;;5052376;28;20047;-80
2023/07/30 09:04:59;;;;;;;2.90;1.10;;;21.70;60.90;;;;;;5050926;28;20560;-80
2023/07/30 09:07:25;;;;;;;4.72;1.60;;;21.70;60.90;;;;;;5052379;28;20048;-80
2023/07/30 09:09:51;;;;;;;3.45;1.40;;;21.70;60.90;;;;;;5052336;28;20475;-80
2023/07/30 09:12:17;;;;;;;3.53;1.33;;;21.80;61.00;;;;;;5052801;28;20037;-76
2023/07/30 09:14:46;;;;;;;3.90;1.35;;;21.80;61.00;;;;;;5052158;28;20052;-76
2023/07/30 09:17:17;;;;;;;7.15;1.95;;;21.80;61.00;;;;;;5052219;28;20068;-76
2023/07/30 09:19:43;;;;;;;3.50;1.20;;;21.80;61.00;;;;;;5052152;28;20025;-76
2023/07/30 09:22:09;;;;;;;6.22;1.77;;;21.80;61.00;;;;;;5052330;28;20430;-76
2023/07/30 09:24:36;;;;;;;7.60;1.98;;;21.90;61.20;;;;;;5052007;28;20101;-76
2023/07/30 09:27:03;;;;;;;6.15;1.60;;;21.30;60.80;;;;;;5052274;28;20155;-76
2023/07/30 09:29:29;;;;;;;4.70;1.65;;;21.90;61.20;;;;;;5052136;28;20040;-76
2023/07/30 09:31:55;;;;;;;4.65;1.70;;;21.90;61.20;;;;;;5051935;28;20023;-76
2023/07/30 09:34:23;;;;;;;5.05;1.40;;;21.90;61.10;;;;;;5051884;28;20029;-76
2023/07/30 09:36:54;;;;;;;4.82;1.55;;;21.90;61.30;;;;;;5051870;28;20025;-76
2023/07/30 09:39:25;;;;;;;6.35;1.60;;;22.00;61.40;;;;;;5051803;28;20032;-76
2023/07/30 09:41:59;;;;;;;4.20;1.50;;;22.00;61.30;;;;;;5052691;28;20047;-76
2023/07/30 09:44:25;;;;;;;4.55;1.52;;;22.00;61.50;;;;;;5052040;28;20204;-76
2023/07/30 09:46:51;;;;;;;5.22;1.80;;;22.00;61.40;;;;;;5051735;28;20025;-76
2023/07/30 09:49:18;;;;;;;6.20;1.35;;;22.00;61.30;;;;;;5052024;28;20030;-76
2023/07/30 09:51:44;;;;;;;4.68;1.48;;;22.00;61.50;;;;;;5051925;28;20135;-76
2023/07/30 09:54:14;;;;;;;5.10;1.55;;;22.00;61.50;;;;;;5051665;28;20523;-76
2023/07/30 09:56:41;;;;;;;5.45;1.60;;;22.00;61.50;;;;;;5050335;28;20048;-76
2023/07/30 09:59:08;;;;;;;6.30;1.70;;;22.00;61.40;;;;;;5051961;28;20116;-76
2023/07/30 10:01:43;;;;;;;4.25;1.40;;;22.10;61.40;;;;;;5051805;28;20025;-76
2023/07/30 10:04:10;;;;;;;4.35;1.17;;;22.10;61.10;;;;;;5051865;28;20414;-76
2023/07/30 10:06:46;;;;;;;2.60;1.00;;;22.20;61.00;;;;;;5051817;28;20090;-76
2023/07/30 10:09:14;;;;;;;4.13;1.58;;;22.30;60.80;;;;;;5052041;28;20541;-76
2023/07/30 10:11:42;;;;;;;4.35;1.40;;;22.30;60.80;;;;;;5051757;28;20454;-76
2023/07/30 10:14:08;;;;;;;4.22;1.58;;;22.30;60.80;;;;;;5051420;28;20041;-76
2023/07/30 10:16:34;;;;;;;3.70;1.15;;;22.30;60.70;;;;;;5051518;28;20107;-76
2023/07/30 10:18:59;;;;;;;4.50;1.42;;;22.40;60.60;;;;;;5054801;28;20146;-76
2023/07/30 10:21:29;;;;;;;6.75;1.35;;;22.40;60.60;;;;;;5055790;28;20013;-76
2023/07/30 10:24:03;;;;;;;6.07;1.43;;;22.40;60.60;;;;;;5055664;28;20027;-76
2023/07/30 10:26:32;;;;;;;7.00;1.25;;;22.40;60.60;;;;;;5055392;28;20143;-76
2023/07/30 10:29:19;;;;;;;4.57;1.30;;;22.40;60.70;;;;;;5055323;28;20589;-76
2023/07/30 10:31:57;;;;;;;4.18;1.38;;;22.40;60.80;;;;;;5055190;28;20029;-76
2023/07/30 10:34:27;;;;;;;5.95;1.27;;;22.40;60.80;;;;;;5055132;28;20028;-75
2023/07/30 10:36:55;;;;;;;;;;;22.50;60.60;;;;;;5056034;28;20104;-75
2023/07/30 10:39:26;;;;;;;5.43;1.30;;;22.60;60.30;;;;;;5055144;28;19904;-75
2023/07/30 10:41:55;;;;;;;3.65;1.20;;;22.60;60.10;;;;;;5055040;28;20108;-75
2023/07/30 10:44:30;;;;;;;4.63;1.23;;;22.70;60.00;;;;;;5055024;28;20078;-77
2023/07/30 10:46:58;;;;;;;4.15;0.98;;;22.80;59.80;;;;;;5054940;28;20017;-75
2023/07/30 10:49:24;;;;;;;3.85;1.00;;;22.80;59.60;;;;;;5055270;28;20033;-75
2023/07/30 10:51:55;;;;;;;4.03;1.00;;;22.90;59.50;;;;;;5055221;28;20025;-75
2023/07/30 10:54:22;;;;;;;2.83;0.85;;;22.90;59.40;;;;;;5054850;28;20488;-75
2023/07/30 10:56:48;;;;;;;3.72;1.30;;;23.00;59.30;;;;;;5054894;28;20079;-75
2023/07/30 10:59:15;;;;;;;5.22;1.13;;;23.10;59.20;;;;;;5055011;28;20033;-76
2023/07/30 11:01:43;;;;;;;4.03;1.33;;;23.20;58.90;;;;;;5054957;28;20043;-76
2023/07/30 11:04:12;;;;;;;5.05;1.17;;;23.20;58.80;;;;;;5054963;28;20021;-76
2023/07/30 11:06:38;;;;;;;3.50;1.08;;;23.20;58.80;;;;;;5055450;28;20017;-75
2023/07/30 11:09:05;;;;;;;4.85;0.90;;;23.20;58.80;;;;;;5054800;28;20416;-76
2023/07/30 11:11:31;;;;;;;4.65;1.42;;;23.10;59.10;;;;;;5054747;28;20096;-76
2023/07/30 11:13:59;;;;;;;3.90;1.10;;;23.10;59.30;;;;;;5054403;28;20072;-76
2023/07/30 11:16:25;;;;;;;3.83;1.42;;;23.00;59.30;;;;;;5054750;28;20017;-77
2023/07/30 11:18:51;;;;;;;2.90;1.00;;;23.00;59.60;;;;;;5054530;28;20040;-77
2023/07/30 11:21:18;;;;;;;1.52;0.88;;;23.00;60.20;;;;;;5054518;28;20112;-77
2023/07/30 11:23:45;;;;;;;4.45;1.58;;;23.00;59.60;;;;;;5054728;28;20104;-77
2023/07/30 11:26:17;;;;;;;4.47;1.10;;;23.10;59.80;;;;;;5054350;28;20021;-77
2023/07/30 11:28:44;;;;;;;2.28;1.00;;;23.00;59.60;;;;;;5053629;28;20025;-77
2023/07/30 11:31:12;;;;;;;2.70;1.20;;;23.00;59.60;;;;;;5054315;28;20021;-77
2023/07/30 11:33:41;;;;;;;4.43;0.93;;;23.10;59.60;;;;;;5054193;28;20487;-77
2023/07/30 11:36:11;;;;;;;4.53;1.75;;;23.20;59.40;;;;;;5054595;28;20475;-76
2023/07/30 11:38:39;;;;;;;5.37;1.13;;;23.30;59.20;;;;;;5053934;28;20049;-76
2023/07/30 11:41:09;;;;;;;3.78;0.77;;;23.20;59.00;;;;;;5054033;28;20017;-77
2023/07/30 11:43:40;;;;;;;3.40;1.13;;;23.20;59.30;;;;;;5054115;28;20135;-77
2023/07/30 11:46:18;;;;;;;3.90;0.85;;;23.20;59.50;;;;;;5054019;28;20028;-77
2023/07/30 11:48:47;;;;;;;5.32;1.38;;;23.30;59.10;;;;;;5054400;28;20024;-77
2023/07/30 11:51:23;;;;;;;3.95;1.05;;;23.30;59.10;;;;;;5053862;28;20463;-77
2023/07/30 11:53:56;;;;;;;3.78;1.30;;;23.50;59.70;;;;;;5054133;28;20122;-77
2023/07/30 11:56:26;;;;;;;5.45;1.23;;;23.50;58.60;;;;;;5054249;28;20025;-77
2023/07/30 11:58:57;;;;;;;4.35;1.20;;;23.50;59.40;;;;;;5054007;28;20037;-77
2023/07/30 12:01:26;;;;;;;4.50;1.17;;;24.00;78.40;;;;;;5053739;28;20036;-77
2023/07/30 12:03:56;;;;;;;4.07;1.15;;;23.60;58.60;;;;;;5054461;28;20090;-77
2023/07/30 12:06:22;;;;;;;3.30;1.00;;;23.70;58.20;;;;;;5053605;28;20479;-77
2023/07/30 12:08:49;;;;;;;4.47;1.35;;;23.70;58.20;;;;;;5053842;28;20037;-77
2023/07/30 12:11:18;;;;;;;3.33;0.93;;;23.90;57.80;;;;;;5053477;28;20475;-77
2023/07/30 12:13:45;;;;;;;3.25;1.00;;;24.00;57.50;;;;;;5053352;28;20075;-77
2023/07/30 12:16:12;;;;;;;1.55;0.70;;;24.10;57.90;;;;;;5053838;28;20078;-81
2023/07/30 12:18:39;;;;;;;4.50;1.20;;;24.20;57.30;;;;;;5053593;28;20120;-81
2023/07/30 12:21:11;;;;;;;4.60;1.10;;;24.30;56.90;;;;;;5053613;28;20013;-81
2023/07/30 12:23:51;;;;;;;3.35;0.95;;;24.40;56.70;;;;;;5053107;28;20025;-81
2023/07/30 12:26:17;;;;;;;3.15;0.85;;;24.50;56.40;;;;;;5053171;28;20019;-80
2023/07/30 12:28:43;;;;;;;3.88;0.95;;;24.50;56.40;;;;;;5053523;28;20028;-81
2023/07/30 12:31:08;;;;;;;2.15;0.80;;;24.50;56.30;;;;;;5053723;28;20384;-81
2023/07/30 12:33:34;;;;;;;5.22;1.10;;;24.50;56.30;;;;;;5053246;28;20024;-81
2023/07/30 12:36:00;;;;;;;2.85;1.02;;;24.60;56.20;;;;;;5053210;28;20056;-81
2023/07/30 12:38:25;;;;;;;4.60;1.27;;;24.60;56.20;;;;;;5053020;28;20502;-81
2023/07/30 12:40:51;;;;;;;2.53;0.85;;;24.60;56.20;;;;;;5052641;28;20028;-81
2023/07/30 12:43:18;;;;;;;4.20;1.15;;;24.50;56.20;;;;;;5053080;28;20549;-81
2023/07/30 12:45:44;;;;;;;2.92;1.02;;;24.50;56.30;;;;;;5053171;28;20051;-81